Time;durP1;ratioP1;P1;durP2;ratioP2;P2;SDS_P1;SDS_P2;PMS_P1;PMS_P2;Temp;Humidity;BMP_temperature;BMP_pressure;BME280_temperature;BME280_humidity;BME280_pressure;Samples;Min_cycle;Max_cycle;Signal;HPM_P1;HPM_P2
2021/07/07 00:01:03;;;;;;;6.40;4.25;;;;;;;-140.79;100.00;63287.88;4802235;29;20042;-80
2021/07/07 00:03:29;;;;;;;6.80;4.63;;;;;;;-140.79;100.00;63287.88;4788680;29;20496;-81
2021/07/07 00:05:54;;;;;;;10.07;4.95;;;;;;;-140.79;100.00;63287.88;4804091;29;20491;-81
2021/07/07 00:08:20;;;;;;;5.85;4.72;;;;;;;-140.79;100.00;63287.88;4798446;29;20488;-81
2021/07/07 00:10:45;;;;;;;8.52;5.10;;;;;;;-140.79;100.00;63287.88;4770954;30;20054;-81
2021/07/07 00:13:11;;;;;;;6.15;4.50;;;;;;;-140.79;100.00;63287.88;4769231;29;20526;-81
2021/07/07 00:15:36;;;;;;;5.93;4.70;;;;;;;-140.79;100.00;63287.88;4786262;30;20027;-81
2021/07/07 00:18:05;;;;;;;9.02;5.25;;;;;;;-140.79;100.00;63287.88;4787402;30;20038;-79
2021/07/07 00:20:36;;;;;;;7.43;4.95;;;;;;;-140.79;100.00;63287.88;4804895;29;20086;-79
2021/07/07 00:23:02;;;;;;;8.55;6.07;;;;;;;-140.79;100.00;63287.88;4806752;29;20071;-79
2021/07/07 00:25:28;;;;;;;6.30;5.20;;;;;;;-140.79;100.00;63287.88;4806908;29;20117;-77
2021/07/07 00:27:53;;;;;;;10.48;7.43;;;;;;;-140.79;100.00;63287.88;4794984;29;20043;-77
2021/07/07 00:30:18;;;;;;;10.25;6.43;;;;;;;-140.79;100.00;63287.88;4805353;29;20033;-79
2021/07/07 00:32:44;;;;;;;9.10;6.10;;;;;;;-140.79;100.00;63287.88;4807779;29;20077;-78
2021/07/07 00:35:10;;;;;;;9.10;5.95;;;;;;;-140.79;100.00;63287.88;4809749;29;20031;-77
2021/07/07 00:37:36;;;;;;;10.70;7.95;;;;;;;-140.79;100.00;63287.88;4815278;29;20121;-79
2021/07/07 00:40:02;;;;;;;10.23;7.00;;;;;;;-140.79;100.00;63287.88;4813885;29;20526;-77
2021/07/07 00:42:28;;;;;;;6.85;5.60;;;;;;;-140.79;100.00;63287.88;4809344;29;20064;-79
2021/07/07 00:44:53;;;;;;;8.30;5.68;;;;;;;-140.79;100.00;63287.88;4813757;29;20034;-80
2021/07/07 00:47:19;;;;;;;7.15;5.45;;;;;;;-140.79;100.00;63287.88;4807730;29;20034;-79
2021/07/07 00:49:44;;;;;;;8.00;5.90;;;;;;;-140.79;100.00;63287.88;4802478;29;20411;-80
2021/07/07 00:52:10;;;;;;;14.18;8.70;;;;;;;-140.79;100.00;63287.88;4803381;29;20500;-79
2021/07/07 00:54:35;;;;;;;9.85;6.53;;;;;;;-140.79;100.00;63287.88;4803064;29;20031;-80
2021/07/07 00:57:01;;;;;;;8.95;5.93;;;;;;;-140.79;100.00;63287.88;4787859;29;20042;-80
2021/07/07 00:59:27;;;;;;;8.60;5.78;;;;;;;-140.79;100.00;63287.88;4786137;29;20038;-80
2021/07/07 01:01:53;;;;;;;6.05;5.10;;;;;;;-140.79;100.00;63287.88;4787641;29;20129;-80
2021/07/07 01:04:19;;;;;;;9.35;5.03;;;;;;;-140.79;100.00;63287.88;4785763;29;20154;-80
2021/07/07 01:06:46;;;;;;;8.30;5.57;;;;;;;-140.79;100.00;63287.88;4804257;29;20062;-80
2021/07/07 01:09:11;;;;;;;8.60;5.25;;;;;;;-140.79;100.00;63287.88;4785293;29;20046;-80
2021/07/07 01:11:37;;;;;;;8.60;5.18;;;;;;;-140.79;100.00;63287.88;4802810;29;20505;-80
2021/07/07 01:14:02;;;;;;;6.53;5.22;;;;;;;-140.79;100.00;63287.88;4785622;29;20023;-80
2021/07/07 01:16:28;;;;;;;8.57;5.10;;;;;;;-140.79;100.00;63287.88;4802239;29;20053;-80
2021/07/07 01:18:54;;;;;;;9.27;5.55;;;;;;;-140.79;100.00;63287.88;4771688;29;20027;-80
2021/07/07 01:21:20;;;;;;;6.18;4.65;;;;;;;-140.79;100.00;63287.88;4802700;29;20051;-80
2021/07/07 01:23:45;;;;;;;9.40;6.75;;;;;;;-140.79;100.00;63287.88;4787498;29;20030;-79
2021/07/07 01:26:11;;;;;;;10.68;6.28;;;;;;;-140.79;100.00;63287.88;4802940;29;20091;-80
2021/07/07 01:28:36;;;;;;;9.90;6.07;;;;;;;-140.79;100.00;63287.88;4801056;29;20031;-79
2021/07/07 01:31:05;;;;;;;9.52;5.40;;;;;;;-140.79;100.00;63287.88;4802501;29;20023;-80
2021/07/07 01:33:31;;;;;;;7.72;5.22;;;;;;;-140.79;100.00;63287.88;4802388;29;20027;-79
2021/07/07 01:35:57;;;;;;;6.57;5.00;;;;;;;-140.79;100.00;63287.88;4803088;29;20030;-79
2021/07/07 01:38:22;;;;;;;7.55;5.43;;;;;;;-140.79;100.00;63287.88;4802882;29;20418;-80
2021/07/07 01:40:48;;;;;;;7.28;5.43;;;;;;;-140.79;100.00;63287.88;4802709;29;20027;-79
2021/07/07 01:43:13;;;;;;;6.45;4.65;;;;;;;-140.79;100.00;63287.88;4785751;29;20049;-80
2021/07/07 01:45:39;;;;;;;7.10;4.60;;;;;;;-140.79;100.00;63287.88;4786263;29;20046;-80
2021/07/07 01:48:04;;;;;;;7.97;4.93;;;;;;;-140.79;100.00;63287.88;4801635;29;20046;-79
2021/07/07 01:50:30;;;;;;;9.60;5.65;;;;;;;-140.79;100.00;63287.88;4800667;29;20561;-79
2021/07/07 01:52:57;;;;;;;6.85;4.68;;;;;;;-140.79;100.00;63287.88;4801852;29;20038;-79
2021/07/07 01:55:25;;;;;;;7.05;5.40;;;;;;;-140.79;100.00;63287.88;4785443;29;20066;-80
2021/07/07 01:57:51;;;;;;;6.47;4.90;;;;;;;-140.79;100.00;63287.88;4801356;29;20160;-80
2021/07/07 02:00:21;;;;;;;6.20;4.90;;;;;;;-140.79;100.00;63287.88;4783942;29;20043;-78
2021/07/07 02:02:47;;;;;;;6.05;4.63;;;;;;;-140.79;100.00;63287.88;4787261;29;20780;-79
2021/07/07 02:05:13;;;;;;;7.35;5.03;;;;;;;-140.79;100.00;63287.88;4801303;29;20055;-79
2021/07/07 02:07:39;;;;;;;6.78;4.90;;;;;;;-140.79;100.00;63287.88;4786901;29;20042;-79
2021/07/07 02:10:06;;;;;;;7.55;4.60;;;;;;;-140.79;100.00;63287.88;4784615;29;20027;-79
2021/07/07 02:12:32;;;;;;;5.72;4.78;;;;;;;-140.79;100.00;63287.88;4803206;29;20035;-79
2021/07/07 02:14:57;;;;;;;6.65;4.55;;;;;;;-140.79;100.00;63287.88;4780155;29;20034;-80
2021/07/07 02:17:22;;;;;;;8.10;5.30;;;;;;;-140.79;100.00;63287.88;4784762;29;20035;-80
2021/07/07 02:19:48;;;;;;;7.70;4.75;;;;;;;-140.79;100.00;63287.88;4769574;29;20030;-80
2021/07/07 02:22:13;;;;;;;6.53;4.60;;;;;;;-140.79;100.00;63287.88;4804228;29;20346;-80
2021/07/07 02:24:39;;;;;;;7.18;4.82;;;;;;;-140.79;100.00;63287.88;4804797;29;20035;-80
2021/07/07 02:27:04;;;;;;;7.80;4.63;;;;;;;-140.79;100.00;63287.88;4790235;29;20038;-79
2021/07/07 02:29:30;;;;;;;6.10;4.90;;;;;;;-140.79;100.00;63287.88;4806333;29;20042;-81
2021/07/07 02:31:55;;;;;;;7.00;5.25;;;;;;;-140.79;100.00;63287.88;4805790;29;20035;-80
2021/07/07 02:34:21;;;;;;;6.95;5.07;;;;;;;-140.79;100.00;63287.88;4806228;29;20043;-80
2021/07/07 02:36:46;;;;;;;6.70;4.90;;;;;;;-140.79;100.00;63287.88;4788796;29;20042;-80
2021/07/07 02:39:12;;;;;;;8.55;5.35;;;;;;;-140.79;100.00;63287.88;4799401;29;20035;-80
2021/07/07 02:41:38;;;;;;;6.20;4.80;;;;;;;-140.79;100.00;63287.88;4786734;30;20042;-81
2021/07/07 02:44:03;;;;;;;7.47;5.10;;;;;;;-140.79;100.00;63287.88;4790762;29;20035;-80
2021/07/07 02:46:29;;;;;;;5.82;4.75;;;;;;;-140.79;100.00;63287.88;4806128;29;20034;-80
2021/07/07 02:48:54;;;;;;;7.93;5.28;;;;;;;-140.79;100.00;63287.88;4804317;29;20038;-80
2021/07/07 02:51:20;;;;;;;6.57;4.78;;;;;;;-140.79;100.00;63287.88;4804899;29;20038;-79
2021/07/07 02:53:45;;;;;;;6.60;4.88;;;;;;;-140.79;100.00;63287.88;4773742;29;20046;-80
2021/07/07 02:56:11;;;;;;;7.13;5.18;;;;;;;-140.79;100.00;63287.88;4804554;29;20030;-80
2021/07/07 02:58:36;;;;;;;7.18;4.80;;;;;;;-140.79;100.00;63287.88;4804256;29;20038;-80
2021/07/07 03:01:02;;;;;;;6.03;4.65;;;;;;;-140.79;100.00;63287.88;4804743;29;20077;-80
2021/07/07 03:03:27;;;;;;;8.27;5.18;;;;;;;-140.79;100.00;63287.88;4802818;29;20058;-79
2021/07/07 03:05:57;;;;;;;7.43;4.93;;;;;;;-140.79;100.00;63287.88;4805137;29;20069;-80
2021/07/07 03:08:25;;;;;;;6.03;4.55;;;;;;;-140.79;100.00;63287.88;4789193;29;20462;-80
2021/07/07 03:10:51;;;;;;;7.13;4.90;;;;;;;-140.79;100.00;63287.88;4781665;29;20038;-80
2021/07/07 03:13:17;;;;;;;7.43;4.85;;;;;;;-140.79;100.00;63287.88;4797767;29;20499;-80
2021/07/07 03:15:42;;;;;;;5.75;4.68;;;;;;;-140.79;100.00;63287.88;4785574;29;20533;-79
2021/07/07 03:18:09;;;;;;;6.15;5.07;;;;;;;-140.79;100.00;63287.88;4798824;29;20065;-80
2021/07/07 03:20:35;;;;;;;7.38;5.28;;;;;;;-140.79;100.00;63287.88;4802144;29;20074;-80
2021/07/07 03:23:01;;;;;;;10.13;5.55;;;;;;;-140.79;100.00;63287.88;4786068;29;20030;-80
2021/07/07 03:25:27;;;;;;;6.85;5.00;;;;;;;-140.79;100.00;63287.88;4803833;29;20046;-79
2021/07/07 03:27:52;;;;;;;6.68;5.30;;;;;;;-140.79;100.00;63287.88;4802482;29;20038;-80
2021/07/07 03:30:18;;;;;;;6.82;5.25;;;;;;;-140.79;100.00;63287.88;4788871;29;20043;-79
2021/07/07 03:32:44;;;;;;;7.38;5.13;;;;;;;-140.79;100.00;63287.88;4804456;29;20038;-79
2021/07/07 03:35:09;;;;;;;7.97;4.95;;;;;;;-140.79;100.00;63287.88;4788011;29;20479;-79
2021/07/07 03:37:35;;;;;;;7.43;5.22;;;;;;;-140.79;100.00;63287.88;4804292;29;20038;-80
2021/07/07 03:40:01;;;;;;;7.38;5.07;;;;;;;-140.79;100.00;63287.88;4787844;29;20038;-79
2021/07/07 03:42:27;;;;;;;6.25;5.05;;;;;;;-140.79;100.00;63287.88;4803557;29;20039;-80
2021/07/07 03:44:52;;;;;;;7.13;5.13;;;;;;;-140.79;100.00;63287.88;4805315;29;20103;-79
2021/07/07 03:47:18;;;;;;;5.97;5.05;;;;;;;-140.79;100.00;63287.88;4804965;29;20043;-79
2021/07/07 03:49:43;;;;;;;8.38;5.38;;;;;;;-140.79;100.00;63287.88;4805588;29;20043;-79
2021/07/07 03:52:08;;;;;;;7.15;5.05;;;;;;;-140.79;100.00;63287.88;4781421;29;20035;-78
2021/07/07 03:54:34;;;;;;;7.15;5.82;;;;;;;-140.79;100.00;63287.88;4793583;29;20039;-79
2021/07/07 03:56:59;;;;;;;6.32;5.30;;;;;;;-140.79;100.00;63287.88;4797329;29;20487;-79
2021/07/07 03:59:25;;;;;;;6.60;5.30;;;;;;;-140.79;100.00;63287.88;4800477;29;20047;-77
2021/07/07 04:01:50;;;;;;;8.48;5.43;;;;;;;-140.79;100.00;63287.88;4796593;29;20119;-80
2021/07/07 04:04:16;;;;;;;6.85;5.10;;;;;;;-140.79;100.00;63287.88;4795966;29;20194;-79
2021/07/07 04:06:43;;;;;;;8.90;5.28;;;;;;;-140.79;100.00;63287.88;4762890;29;20035;-83
2021/07/07 04:09:08;;;;;;;6.82;4.97;;;;;;;-140.79;100.00;63287.88;4779813;29;20109;-80
2021/07/07 04:11:34;;;;;;;8.65;5.70;;;;;;;-140.79;100.00;63287.88;4794213;29;20134;-83
2021/07/07 04:14:00;;;;;;;8.98;5.75;;;;;;;-140.79;100.00;63287.88;4769046;29;20034;-81
2021/07/07 04:16:25;;;;;;;6.80;5.35;;;;;;;-140.79;100.00;63287.88;4780131;29;20031;-83
2021/07/07 04:18:51;;;;;;;8.38;5.70;;;;;;;-140.79;100.00;63287.88;4779417;29;20092;-83
2021/07/07 04:21:17;;;;;;;8.55;5.50;;;;;;;-140.79;100.00;63287.88;4765020;29;20031;-82
2021/07/07 04:23:42;;;;;;;6.50;5.72;;;;;;;-140.79;100.00;63287.88;4763424;29;20038;-83
2021/07/07 04:26:08;;;;;;;8.77;5.40;;;;;;;-140.79;100.00;63287.88;4765105;29;20030;-80
2021/07/07 04:28:33;;;;;;;7.35;5.28;;;;;;;-140.79;100.00;63287.88;4794360;29;20042;-79
2021/07/07 04:30:59;;;;;;;8.07;6.40;;;;;;;-140.79;100.00;63287.88;4780990;29;20506;-78
2021/07/07 04:33:24;;;;;;;7.47;5.40;;;;;;;-140.79;100.00;63287.88;4782176;29;20030;-79
2021/07/07 04:35:50;;;;;;;9.98;5.68;;;;;;;-140.79;100.00;63287.88;4800038;29;20117;-84
2021/07/07 04:38:15;;;;;;;8.38;5.63;;;;;;;-140.79;100.00;63287.88;4783544;29;20030;-79
2021/07/07 04:40:41;;;;;;;8.65;5.93;;;;;;;-140.79;100.00;63287.88;4811963;29;20037;-84
2021/07/07 04:43:06;;;;;;;9.90;6.50;;;;;;;-140.79;100.00;63287.88;4772441;29;20039;-82
2021/07/07 04:45:32;;;;;;;6.93;5.70;;;;;;;-140.79;100.00;63287.88;4769782;29;20088;-77
2021/07/07 04:47:57;;;;;;;8.55;6.55;;;;;;;-140.79;100.00;63287.88;4787079;29;20031;-79
2021/07/07 04:50:23;;;;;;;7.70;5.93;;;;;;;-140.79;100.00;63287.88;4807120;29;20037;-80
2021/07/07 04:52:48;;;;;;;8.68;5.97;;;;;;;-140.79;100.00;63287.88;4784502;29;20573;-81
2021/07/07 04:55:14;;;;;;;11.38;6.78;;;;;;;-140.79;100.00;63287.88;4799727;29;20023;-79
2021/07/07 04:57:42;;;;;;;9.68;6.90;;;;;;;-140.79;100.00;63287.88;4804969;29;20026;-87
2021/07/07 05:00:14;;;;;;;13.20;7.13;;;;;;;-140.79;100.00;63287.88;4803186;29;20473;-77
2021/07/07 05:02:41;;;;;;;9.30;7.13;;;;;;;-140.79;100.00;63287.88;4799450;29;20566;-80
2021/07/07 05:05:07;;;;;;;11.77;7.28;;;;;;;-140.79;100.00;63287.88;4765615;30;20554;-85
2021/07/07 05:07:33;;;;;;;8.90;6.57;;;;;;;-140.79;100.00;63287.88;4776931;30;20032;-78
2021/07/07 05:09:58;;;;;;;9.77;7.00;;;;;;;-140.79;100.00;63287.88;4761600;30;20166;-81
2021/07/07 05:12:25;;;;;;;10.98;6.75;;;;;;;-140.79;100.00;63287.88;4775173;30;20096;-77
2021/07/07 05:14:50;;;;;;;9.75;6.53;;;;;;;-140.79;100.00;63287.88;4752484;30;20031;-79
2021/07/07 05:17:16;;;;;;;12.98;6.95;;;;;;;-140.79;100.00;63287.88;4774443;29;20039;-75
2021/07/07 05:19:41;;;;;;;11.57;7.35;;;;;;;-140.79;100.00;63287.88;4762783;30;20039;-79
2021/07/07 05:22:07;;;;;;;9.48;6.72;;;;;;;-140.79;100.00;63287.88;4770314;30;20039;-78
2021/07/07 05:24:32;;;;;;;13.98;7.40;;;;;;;-140.79;100.00;63287.88;4781047;30;20054;-78
2021/07/07 05:27:00;;;;;;;11.98;7.90;;;;;;;-140.79;100.00;63287.88;4784256;30;20092;-78
2021/07/07 05:29:26;;;;;;;14.07;7.97;;;;;;;-140.79;100.00;63287.88;4781109;30;20035;-76
2021/07/07 05:31:53;;;;;;;12.75;7.57;;;;;;;-140.79;100.00;63287.88;4778014;30;20033;-74
2021/07/07 05:34:18;;;;;;;12.60;7.40;;;;;;;-140.79;100.00;63287.88;4773306;30;20716;-76
2021/07/07 05:36:43;;;;;;;10.88;7.43;;;;;;;-140.79;100.00;63287.88;4783680;30;20030;-77
2021/07/07 05:39:09;;;;;;;12.10;9.00;;;;;;;-140.79;100.00;63287.88;4778729;29;20027;-76
2021/07/07 05:41:34;;;;;;;13.25;7.68;;;;;;;-140.79;100.00;63287.88;4782789;30;20027;-90
2021/07/07 05:44:00;;;;;;;12.15;7.70;;;;;;;-140.79;100.00;63287.88;4785106;29;20027;-78
2021/07/07 05:46:25;;;;;;;12.13;8.13;;;;;;;-140.79;100.00;63287.88;4795503;29;20023;-78
2021/07/07 05:48:51;;;;;;;11.18;7.07;;;;;;;-140.79;100.00;63287.88;4791989;29;20035;-77
2021/07/07 05:51:17;;;;;;;11.90;7.35;;;;;;;-140.79;100.00;63287.88;4768645;30;20054;-76
2021/07/07 05:53:42;;;;;;;13.30;7.47;;;;;;;-140.79;100.00;63287.88;4794378;29;20038;-75
2021/07/07 05:56:08;;;;;;;12.68;7.53;;;;;;;-140.79;100.00;63287.88;4786994;29;20023;-74
2021/07/07 05:58:34;;;;;;;13.50;6.78;;;;;;;-140.79;100.00;63287.88;4793706;30;20036;-77
2021/07/07 06:01:00;;;;;;;9.20;6.22;;;;;;;-140.79;100.00;63287.88;4793058;30;20096;-74
2021/07/07 06:03:25;;;;;;;9.43;6.90;;;;;;;-140.79;100.00;63287.88;4796440;29;20050;-81
2021/07/07 06:05:50;;;;;;;12.35;6.72;;;;;;;-140.79;100.00;63287.88;4801145;29;20049;-83
2021/07/07 06:08:16;;;;;;;12.15;7.13;;;;;;;-140.79;100.00;63287.88;4805100;29;20035;-88
2021/07/07 06:10:43;;;;;;;12.32;7.22;;;;;;;-140.79;100.00;63287.88;4816964;29;20045;-82
2021/07/07 06:13:08;;;;;;;10.45;6.82;;;;;;;-140.79;100.00;63287.88;4811310;29;20463;-85
2021/07/07 06:15:36;;;;;;;11.60;7.05;;;;;;;-140.79;100.00;63287.88;4803606;29;20046;-84
2021/07/07 06:18:03;;;;;;;9.88;6.15;;;;;;;-140.79;100.00;63287.88;4802835;29;20804;-81
2021/07/07 06:20:29;;;;;;;8.77;6.38;;;;;;;-140.79;100.00;63287.88;4810800;29;20039;-78
2021/07/07 06:22:54;;;;;;;11.65;6.13;;;;;;;-140.79;100.00;63287.88;4771298;29;20045;-82
2021/07/07 06:25:20;;;;;;;12.40;6.75;;;;;;;-140.79;100.00;63287.88;4800241;29;20035;-84
2021/07/07 06:27:45;;;;;;;9.45;5.65;;;;;;;-140.79;100.00;63287.88;4787212;29;20479;-86
2021/07/07 06:30:12;;;;;;;8.45;5.75;;;;;;;-140.79;100.00;63287.88;4786832;29;20073;-74
2021/07/07 06:32:38;;;;;;;8.45;5.55;;;;;;;-140.79;100.00;63287.88;4786538;29;20050;-73
2021/07/07 06:35:04;;;;;;;8.30;5.90;;;;;;;-140.79;100.00;63287.88;4779530;29;20042;-74
2021/07/07 06:37:30;;;;;;;9.13;5.95;;;;;;;-140.79;100.00;63287.88;4801372;29;20122;-75
2021/07/07 06:39:55;;;;;;;10.52;5.80;;;;;;;-140.79;100.00;63287.88;4770268;29;20577;-74
2021/07/07 06:42:21;;;;;;;10.52;6.07;;;;;;;-140.79;100.00;63287.88;4785511;29;20034;-75
2021/07/07 06:44:46;;;;;;;7.65;5.30;;;;;;;-140.79;100.00;63287.88;4785841;29;20042;-75
2021/07/07 06:47:11;;;;;;;9.60;5.57;;;;;;;-140.79;100.00;63287.88;4799463;29;20038;-76
2021/07/07 06:49:37;;;;;;;8.73;5.60;;;;;;;-140.79;100.00;63287.88;4789377;29;20027;-74
2021/07/07 06:52:03;;;;;;;8.82;5.78;;;;;;;-140.79;100.00;63287.88;4801320;29;20046;-74
2021/07/07 06:54:29;;;;;;;9.13;5.68;;;;;;;-140.79;100.00;63287.88;4791655;29;20027;-75
2021/07/07 06:56:55;;;;;;;7.50;5.30;;;;;;;-140.79;100.00;63287.88;4792744;29;20035;-73
2021/07/07 06:59:20;;;;;;;7.07;5.32;;;;;;;-140.79;100.00;63287.88;4775003;29;20924;-72
2021/07/07 07:01:45;;;;;;;8.65;5.65;;;;;;;-140.79;100.00;63287.88;4791805;29;20078;-74
2021/07/07 07:04:11;;;;;;;8.60;5.63;;;;;;;-140.79;100.00;63287.88;4766735;30;20118;-74
2021/07/07 07:06:36;;;;;;;7.47;5.30;;;;;;;-140.79;100.00;63287.88;4770170;30;20050;-74
2021/07/07 07:09:03;;;;;;;7.70;5.65;;;;;;;-140.79;100.00;63287.88;4772096;29;20040;-74
2021/07/07 07:11:29;;;;;;;8.25;5.45;;;;;;;-140.79;100.00;63287.88;4782223;30;20068;-75
2021/07/07 07:13:54;;;;;;;7.15;4.97;;;;;;;-140.79;100.00;63287.88;4780896;30;20499;-75
2021/07/07 07:16:21;;;;;;;8.00;4.97;;;;;;;-140.79;100.00;63287.88;4786032;30;20058;-75
2021/07/07 07:18:47;;;;;;;6.53;5.20;;;;;;;-140.79;100.00;63287.88;4761577;30;20047;-74
2021/07/07 07:21:12;;;;;;;7.72;5.13;;;;;;;-140.79;100.00;63287.88;4780928;30;20035;-74
2021/07/07 07:23:38;;;;;;;7.43;5.70;;;;;;;-140.79;100.00;63287.88;4780158;30;20030;-75
2021/07/07 07:26:03;;;;;;;5.80;4.78;;;;;;;-140.79;100.00;63287.88;4777330;30;20040;-74
2021/07/07 07:28:29;;;;;;;8.43;5.03;;;;;;;-140.79;100.00;63287.88;4772405;30;20035;-74
2021/07/07 07:30:56;;;;;;;7.50;4.85;;;;;;;-140.79;100.00;63287.88;4766379;30;20032;-74
2021/07/07 07:33:21;;;;;;;7.38;5.35;;;;;;;-140.79;100.00;63287.88;4770962;30;20042;-75
2021/07/07 07:35:47;;;;;;;7.60;5.00;;;;;;;-140.79;100.00;63287.88;4765393;29;20022;-75
2021/07/07 07:38:15;;;;;;;7.70;4.95;;;;;;;-140.79;100.00;63287.88;4794168;29;20620;-74
2021/07/07 07:40:42;;;;;;;6.10;5.00;;;;;;;-140.79;100.00;63287.88;4771899;30;20121;-75
2021/07/07 07:43:09;;;;;;;6.45;5.07;;;;;;;-140.79;100.00;63287.88;4771167;30;20042;-73
2021/07/07 07:45:35;;;;;;;7.65;5.35;;;;;;;-140.79;100.00;63287.88;4755802;30;20507;-74
2021/07/07 07:48:01;;;;;;;7.43;4.85;;;;;;;-140.79;100.00;63287.88;4769876;30;20043;-74
2021/07/07 07:50:26;;;;;;;6.72;4.78;;;;;;;-140.79;100.00;63287.88;4788280;30;20042;-74
2021/07/07 07:52:52;;;;;;;7.13;4.75;;;;;;;-140.79;100.00;63287.88;4784500;30;20062;-74
2021/07/07 07:55:17;;;;;;;6.30;4.43;;;;;;;-140.79;100.00;63287.88;4769987;30;20027;-74
2021/07/07 07:57:43;;;;;;;7.47;5.18;;;;;;;-140.79;100.00;63287.88;4768264;30;20047;-74
2021/07/07 08:00:10;;;;;;;7.03;5.00;;;;;;;-140.79;100.00;63287.88;4783336;30;20109;-74
2021/07/07 08:02:35;;;;;;;7.60;5.10;;;;;;;-140.79;100.00;63287.88;4772115;30;20392;-74
2021/07/07 08:05:00;;;;;;;7.53;5.30;;;;;;;-140.79;100.00;63287.88;4785090;30;20102;-74
2021/07/07 08:07:27;;;;;;;6.88;4.93;;;;;;;-140.79;100.00;63287.88;4769669;30;20483;-75
2021/07/07 08:09:53;;;;;;;6.30;4.80;;;;;;;-140.79;100.00;63287.88;4769396;30;20104;-73
2021/07/07 08:12:18;;;;;;;5.80;4.60;;;;;;;-140.79;100.00;63287.88;4755234;30;20034;-75
2021/07/07 08:14:44;;;;;;;8.00;5.15;;;;;;;-140.79;100.00;63287.88;4785347;30;20658;-74
2021/07/07 08:17:09;;;;;;;6.03;4.60;;;;;;;-140.79;100.00;63287.88;4786311;30;20573;-73
2021/07/07 08:19:35;;;;;;;6.53;4.93;;;;;;;-140.79;100.00;63287.88;4784166;29;20104;-74
2021/07/07 08:22:00;;;;;;;6.10;4.90;;;;;;;-140.79;100.00;63287.88;4785687;30;20479;-74
2021/07/07 08:24:26;;;;;;;8.18;4.60;;;;;;;-140.79;100.00;63287.88;4781552;30;20108;-75
2021/07/07 08:26:54;;;;;;;6.75;5.00;;;;;;;-140.79;100.00;63287.88;4786205;30;20035;-74
2021/07/07 08:29:20;;;;;;;6.22;4.88;;;;;;;-140.79;100.00;63287.88;4777709;30;20164;-75
2021/07/07 08:31:45;;;;;;;8.13;4.88;;;;;;;-140.79;100.00;63287.88;4770602;30;20039;-74
2021/07/07 08:34:11;;;;;;;7.57;4.72;;;;;;;-140.79;100.00;63287.88;4780270;30;20065;-73
2021/07/07 08:36:36;;;;;;;6.75;5.03;;;;;;;-140.79;100.00;63287.88;4788329;30;20506;-73
2021/07/07 08:39:03;;;;;;;6.53;4.90;;;;;;;-140.79;100.00;63287.88;4787900;30;20046;-74
2021/07/07 08:41:28;;;;;;;5.63;4.93;;;;;;;-140.79;100.00;63287.88;4782279;29;20059;-73
2021/07/07 08:43:54;;;;;;;5.30;4.80;;;;;;;-140.79;100.00;63287.88;4773498;30;20043;-74
2021/07/07 08:46:19;;;;;;;5.55;4.50;;;;;;;-140.79;100.00;63287.88;4766399;30;20440;-74
2021/07/07 08:48:45;;;;;;;5.78;4.45;;;;;;;-140.79;100.00;63287.88;4750615;30;20058;-73
2021/07/07 08:51:10;;;;;;;5.20;4.40;;;;;;;-140.79;100.00;63287.88;4776485;30;20412;-74
2021/07/07 08:53:36;;;;;;;5.57;4.50;;;;;;;-140.79;100.00;63287.88;4785284;30;20034;-75
2021/07/07 08:56:01;;;;;;;7.18;4.93;;;;;;;-140.79;100.00;63287.88;4783903;30;20027;-75
2021/07/07 08:58:27;;;;;;;5.18;4.20;;;;;;;-140.79;100.00;63287.88;4784960;30;20023;-74
2021/07/07 09:00:52;;;;;;;6.25;4.68;;;;;;;-140.79;100.00;63287.88;4783674;30;20096;-75
2021/07/07 09:03:18;;;;;;;6.65;4.82;;;;;;;-140.79;100.00;63287.88;4788397;29;20107;-74
2021/07/07 09:05:58;;;;;;;6.07;4.72;;;;;;;-140.79;100.00;63287.88;4803122;29;20031;-76
2021/07/07 09:08:36;;;;;;;6.13;4.50;;;;;;;-140.79;100.00;63287.88;4801792;29;20126;-76
2021/07/07 09:11:27;;;;;;;5.88;4.20;;;;;;;-140.79;100.00;63287.88;4802776;29;20035;-76
2021/07/07 09:14:14;;;;;;;6.05;4.30;;;;;;;-140.79;100.00;63287.88;4807285;29;20050;-76
2021/07/07 09:16:58;;;;;;;5.18;4.13;;;;;;;-140.79;100.00;63287.88;4792375;29;20035;-75
2021/07/07 09:19:24;;;;;;;4.38;3.92;;;;;;;-140.79;100.00;63287.88;4781285;29;20503;-75
2021/07/07 09:21:51;;;;;;;5.93;4.68;;;;;;;-140.79;100.00;63287.88;4802201;29;20034;-74
2021/07/07 09:24:19;;;;;;;5.60;4.43;;;;;;;-140.79;100.00;63287.88;4801995;29;20039;-76
2021/07/07 09:26:44;;;;;;;7.53;4.70;;;;;;;-140.79;100.00;63287.88;4801760;29;20567;-74
2021/07/07 09:29:09;;;;;;;5.43;4.15;;;;;;;-140.79;100.00;63287.88;4784913;29;20031;-75
2021/07/07 09:31:41;;;;;;;6.85;4.38;;;;;;;-140.79;100.00;63287.88;4802369;29;20497;-74
2021/07/07 09:34:18;;;;;;;5.28;3.90;;;;;;;-140.79;100.00;63287.88;4793479;29;20043;-75
2021/07/07 09:36:46;;;;;;;6.18;4.22;;;;;;;-140.79;100.00;63287.88;4793561;29;20027;-75
2021/07/07 09:39:12;;;;;;;6.20;3.97;;;;;;;-140.79;100.00;63287.88;4799841;29;20559;-76
2021/07/07 09:41:38;;;;;;;4.47;3.85;;;;;;;-140.79;100.00;63287.88;4785455;29;20042;-76
2021/07/07 09:44:06;;;;;;;5.95;3.90;;;;;;;-140.79;100.00;63287.88;4785480;29;20113;-75
2021/07/07 09:46:31;;;;;;;6.35;4.45;;;;;;;-140.79;100.00;63287.88;4808901;29;20045;-76
2021/07/07 09:48:57;;;;;;;5.22;3.97;;;;;;;-140.79;100.00;63287.88;4782669;29;20027;-74
2021/07/07 09:51:22;;;;;;;6.43;4.30;;;;;;;-140.79;100.00;63287.88;4806943;29;20098;-81
2021/07/07 09:53:48;;;;;;;5.35;4.30;;;;;;;-140.79;100.00;63287.88;4794748;29;20030;-79
2021/07/07 09:56:13;;;;;;;6.78;4.30;;;;;;;-140.79;100.00;63287.88;4790709;29;20503;-80
2021/07/07 09:58:39;;;;;;;5.00;4.10;;;;;;;-140.79;100.00;63287.88;4770998;29;20035;-77
2021/07/07 10:01:04;;;;;;;5.10;3.92;;;;;;;-140.79;100.00;63287.88;4798203;29;20038;-77
2021/07/07 10:03:31;;;;;;;6.00;4.30;;;;;;;-140.79;100.00;63287.88;4795262;29;20062;-79
2021/07/07 10:05:56;;;;;;;5.65;4.00;;;;;;;-140.79;100.00;63287.88;4773260;29;20091;-74
2021/07/07 10:08:22;;;;;;;4.78;3.92;;;;;;;-140.79;100.00;63287.88;4789511;29;20039;-80
2021/07/07 10:10:47;;;;;;;5.32;4.05;;;;;;;-140.79;100.00;63287.88;4791106;29;20046;-79
2021/07/07 10:13:14;;;;;;;5.78;4.20;;;;;;;-140.79;100.00;63287.88;4796386;29;20136;-80
2021/07/07 10:15:40;;;;;;;5.70;4.00;;;;;;;-140.79;100.00;63287.88;4815064;29;20038;-79
2021/07/07 10:18:07;;;;;;;5.35;3.85;;;;;;;-140.79;100.00;63287.88;4762623;29;20111;-80
2021/07/07 10:20:32;;;;;;;5.32;3.80;;;;;;;-140.79;100.00;63287.88;4786856;29;20088;-80
2021/07/07 10:22:58;;;;;;;5.40;3.90;;;;;;;-140.79;100.00;63287.88;4786125;29;20388;-80
2021/07/07 10:25:26;;;;;;;5.03;3.92;;;;;;;-140.79;100.00;63287.88;4786983;29;20034;-80
2021/07/07 10:27:53;;;;;;;4.50;3.85;;;;;;;-140.79;100.00;63287.88;4769061;29;20130;-81
2021/07/07 10:30:20;;;;;;;5.65;3.88;;;;;;;-140.79;100.00;63287.88;4777414;29;20411;-80
2021/07/07 10:33:08;;;;;;;4.60;3.85;;;;;;;-140.79;100.00;63287.88;4802870;29;20047;-80
2021/07/07 10:35:33;;;;;;;6.03;4.30;;;;;;;-140.79;100.00;63287.88;4783611;30;20043;-80
2021/07/07 10:37:58;;;;;;;6.20;4.32;;;;;;;-140.79;100.00;63287.88;4799435;29;20408;-80
2021/07/07 10:40:29;;;;;;;6.88;4.30;;;;;;;-140.79;100.00;63287.88;4786360;29;20422;-80
2021/07/07 10:42:54;;;;;;;4.97;3.90;;;;;;;-140.79;100.00;63287.88;4803530;29;20547;-80
2021/07/07 10:45:49;;;;;;;6.15;4.10;;;;;;;-140.79;100.00;63287.88;4784304;30;20043;-80
2021/07/07 10:48:31;;;;;;;5.40;3.90;;;;;;;-140.79;100.00;63287.88;4773512;29;20555;-79
2021/07/07 10:51:21;;;;;;;6.20;4.20;;;;;;;-140.79;100.00;63287.88;4772648;30;20095;-78
2021/07/07 10:53:46;;;;;;;8.32;4.10;;;;;;;-140.79;100.00;63287.88;4793121;29;20074;-79
2021/07/07 10:56:12;;;;;;;6.78;4.22;;;;;;;-140.79;100.00;63287.88;4789753;29;20525;-78
2021/07/07 10:58:39;;;;;;;5.38;4.40;;;;;;;-140.79;100.00;63287.88;4776386;29;20027;-74
2021/07/07 11:01:34;;;;;;;5.30;3.72;;;;;;;-140.79;100.00;63287.88;4779726;29;20096;-78
2021/07/07 11:04:00;;;;;;;7.95;5.05;;;;;;;-140.79;100.00;63287.88;4786286;29;20600;-74
2021/07/07 11:06:27;;;;;;;7.43;4.38;;;;;;;-140.79;100.00;63287.88;4798006;29;20087;-75